createdAt,value
2023-02-11T00:01:37.274Z,21.50
2023-02-11T00:04:06.285Z,21.20
2023-02-11T00:06:35.334Z,25.48
2023-02-11T00:09:02.295Z,28.27
2023-02-11T00:11:32.659Z,27.52
2023-02-11T00:14:03.480Z,25.83
2023-02-11T00:16:31.820Z,25.30
2023-02-11T00:19:02.972Z,25.70
2023-02-11T00:21:29.644Z,26.13
2023-02-11T00:23:58.622Z,26.30
2023-02-11T00:26:33.036Z,24.13
2023-02-11T00:29:00.883Z,23.48
2023-02-11T00:31:28.294Z,24.52
2023-02-11T00:33:55.353Z,23.10
2023-02-11T00:36:25.914Z,23.40
2023-02-11T00:38:54.660Z,22.65
2023-02-11T00:41:22.808Z,22.75
2023-02-11T00:43:50.442Z,21.98
2023-02-11T00:46:17.115Z,22.70
2023-02-11T00:48:43.867Z,22.08
2023-02-11T00:51:10.866Z,21.98
2023-02-11T00:53:38.045Z,23.40
2023-02-11T00:56:05.725Z,23.80
2023-02-11T00:58:32.565Z,23.02
2023-02-11T01:00:59.183Z,22.92
2023-02-11T01:03:26.165Z,23.15
2023-02-11T01:05:53.104Z,22.27
2023-02-11T01:08:19.986Z,22.52
2023-02-11T01:11:01.480Z,22.90
2023-02-11T01:13:32.767Z,21.48
2023-02-11T01:15:59.932Z,21.35
2023-02-11T01:18:27.297Z,21.48
2023-02-11T01:20:54.426Z,21.77
2023-02-11T01:23:21.572Z,21.58
2023-02-11T01:25:48.981Z,22.30
2023-02-11T01:28:27.714Z,21.50
2023-02-11T01:30:55.830Z,21.85
2023-02-11T01:33:23.906Z,22.00
2023-02-11T01:35:50.872Z,20.95
2023-02-11T01:38:22.033Z,23.08
2023-02-11T01:40:57.791Z,22.20
2023-02-11T01:43:26.932Z,23.90
2023-02-11T01:46:00.467Z,23.45
2023-02-11T01:48:36.266Z,23.67
2023-02-11T01:51:26.979Z,22.87
2023-02-11T01:54:14.830Z,22.50
2023-02-11T01:57:07.617Z,23.63
2023-02-11T01:59:45.872Z,23.70
2023-02-11T02:02:17.750Z,23.10
2023-02-11T02:05:04.643Z,23.73
2023-02-11T02:07:47.162Z,24.58
2023-02-11T02:10:21.013Z,24.45
2023-02-11T02:12:47.549Z,23.85
2023-02-11T02:15:39.060Z,24.73
2023-02-11T02:19:16.281Z,22.65
2023-02-11T02:21:48.363Z,22.20
2023-02-11T02:24:56.540Z,24.20
2023-02-11T02:30:53.210Z,22.50
2023-02-11T02:33:49.924Z,22.10
2023-02-11T02:36:47.723Z,23.83
2023-02-11T02:39:33.753Z,21.88
2023-02-11T02:42:01.831Z,22.63
2023-02-11T02:44:29.919Z,22.85
2023-02-11T02:46:56.711Z,21.75
2023-02-11T02:49:23.538Z,24.70
2023-02-11T02:52:05.997Z,24.05
2023-02-11T02:55:11.455Z,21.92
2023-02-11T02:58:19.492Z,22.23
2023-02-11T03:01:34.628Z,23.15
2023-02-11T03:04:30.900Z,22.48
2023-02-11T03:07:20.747Z,21.77
2023-02-11T03:10:00.435Z,20.73
2023-02-11T03:12:32.404Z,22.52
2023-02-11T03:15:02.377Z,23.08
2023-02-11T03:17:34.940Z,22.45
2023-02-11T03:20:05.651Z,22.10
2023-02-11T03:22:49.995Z,23.33
2023-02-11T03:25:17.400Z,22.10
2023-02-11T03:27:54.770Z,21.17
2023-02-11T03:30:39.757Z,22.42
2023-02-11T03:33:23.136Z,23.00
2023-02-11T03:36:03.373Z,20.17
2023-02-11T03:38:41.166Z,21.40
2023-02-11T03:41:12.516Z,21.88
2023-02-11T03:43:47.279Z,23.58
2023-02-11T03:46:18.364Z,22.63
2023-02-11T03:48:52.373Z,23.65
2023-02-11T03:51:27.428Z,23.75
2023-02-11T03:53:59.502Z,23.85
2023-02-11T03:56:36.598Z,22.83
2023-02-11T03:59:03.208Z,22.30
2023-02-11T04:01:29.731Z,22.85
2023-02-11T04:03:56.229Z,22.98
2023-02-11T04:06:23.002Z,21.60
2023-02-11T04:08:49.505Z,24.35
2023-02-11T04:11:15.972Z,23.02
2023-02-11T04:13:42.421Z,25.40
2023-02-11T04:16:08.922Z,23.75
2023-02-11T04:18:35.373Z,23.45
2023-02-11T04:21:01.911Z,23.23
2023-02-11T04:23:28.470Z,24.30
2023-02-11T04:25:54.909Z,23.50
2023-02-11T04:28:21.755Z,23.75
2023-02-11T04:30:51.445Z,22.92
2023-02-11T04:33:18.245Z,23.42
2023-02-11T04:35:50.909Z,22.38
2023-02-11T04:38:17.881Z,22.63
2023-02-11T04:40:44.382Z,22.52
2023-02-11T04:43:10.910Z,22.30
2023-02-11T04:45:37.508Z,21.30
2023-02-11T04:48:04.509Z,22.02
2023-02-11T04:50:31.040Z,21.45
2023-02-11T04:52:57.575Z,21.58
2023-02-11T04:55:24.219Z,20.83
2023-02-11T04:57:50.741Z,22.33
2023-02-11T05:00:17.586Z,21.27
2023-02-11T05:02:44.198Z,20.58
2023-02-11T05:05:10.707Z,19.80
2023-02-11T05:07:42.494Z,21.08
2023-02-11T05:10:09.244Z,21.38
2023-02-11T05:12:35.680Z,21.67
2023-02-11T05:15:02.173Z,21.55
2023-02-11T05:17:28.636Z,21.17
2023-02-11T05:19:55.117Z,20.15
2023-02-11T05:22:22.093Z,20.83
2023-02-11T05:24:50.114Z,19.92
2023-02-11T05:27:16.683Z,19.35
2023-02-11T05:29:43.187Z,21.52
2023-02-11T05:32:09.651Z,21.58
2023-02-11T05:34:36.845Z,20.05
2023-02-11T05:37:03.520Z,20.92
2023-02-11T05:39:30.048Z,19.98
2023-02-11T05:41:56.610Z,21.20
2023-02-11T05:44:23.255Z,20.25
2023-02-11T05:46:49.764Z,18.67
2023-02-11T05:49:17.885Z,19.60
2023-02-11T05:51:44.385Z,20.02
2023-02-11T05:54:10.984Z,20.65
2023-02-11T05:56:37.539Z,21.88
2023-02-11T05:59:04.114Z,20.77
2023-02-11T06:01:30.693Z,22.08
2023-02-11T06:03:57.217Z,21.90
2023-02-11T06:06:25.165Z,20.08
2023-02-11T06:08:52.028Z,19.88
2023-02-11T06:11:18.799Z,20.08
2023-02-11T06:13:45.715Z,20.92
2023-02-11T06:16:12.276Z,20.67
2023-02-11T06:18:38.781Z,21.25
2023-02-11T06:21:14.881Z,22.15
2023-02-11T06:23:43.633Z,20.90
2023-02-11T06:26:19.904Z,23.40
2023-02-11T06:28:46.812Z,25.33
2023-02-11T06:31:14.342Z,24.88
2023-02-11T06:33:41.295Z,21.25
2023-02-11T06:36:20.554Z,24.80
2023-02-11T06:38:47.836Z,22.27
2023-02-11T06:41:17.214Z,23.70
2023-02-11T06:43:44.390Z,20.70
2023-02-11T06:46:11.006Z,33.95
2023-02-11T06:48:37.745Z,38.90
2023-02-11T06:51:07.872Z,30.65
2023-02-11T06:53:44.256Z,22.35
2023-02-11T06:56:15.196Z,22.02
2023-02-11T06:58:42.316Z,20.80
2023-02-11T07:01:13.222Z,19.73
2023-02-11T07:03:45.987Z,20.67
2023-02-11T07:06:17.994Z,21.17
2023-02-11T07:08:45.946Z,21.00
2023-02-11T07:11:19.417Z,21.40
2023-02-11T07:13:47.147Z,21.08
2023-02-11T07:16:19.837Z,20.67
2023-02-11T07:18:47.907Z,22.17
2023-02-11T07:21:18.933Z,22.73
2023-02-11T07:23:46.502Z,22.40
2023-02-11T07:26:16.876Z,21.92
2023-02-11T07:28:44.527Z,23.80
2023-02-11T07:31:18.480Z,22.13
2023-02-11T07:33:45.955Z,23.20
2023-02-11T07:36:15.320Z,25.20
2023-02-11T07:38:42.708Z,48.15
2023-02-11T07:41:13.987Z,24.75
2023-02-11T07:43:41.996Z,21.98
2023-02-11T07:46:13.509Z,21.90
2023-02-11T07:48:40.268Z,22.92
2023-02-11T07:51:17.770Z,21.83
2023-02-11T07:53:45.279Z,22.35
2023-02-11T07:56:14.137Z,35.25
2023-02-11T07:58:42.957Z,22.45
2023-02-11T08:01:14.312Z,20.92
2023-02-11T08:03:42.824Z,25.52
2023-02-11T08:06:14.847Z,21.15
2023-02-11T08:08:42.472Z,21.02
2023-02-11T08:11:15.389Z,20.45
2023-02-11T08:13:42.049Z,21.88
2023-02-11T08:16:09.616Z,21.48
2023-02-11T08:18:36.800Z,39.40
2023-02-11T08:21:08.880Z,23.85
2023-02-11T08:23:41.347Z,21.75
2023-02-11T08:26:14.548Z,24.52
2023-02-11T08:28:44.578Z,21.00
2023-02-11T08:31:17.266Z,21.48
2023-02-11T08:33:44.551Z,23.75
2023-02-11T08:36:20.806Z,22.33
2023-02-11T08:38:47.580Z,21.42
2023-02-11T08:41:15.061Z,19.52
2023-02-11T08:43:43.521Z,20.88
2023-02-11T08:46:15.705Z,23.17
2023-02-11T08:48:43.561Z,23.05
2023-02-11T08:51:15.586Z,19.23
2023-02-11T08:53:42.392Z,18.73
2023-02-11T08:56:13.358Z,18.85
2023-02-11T08:58:40.558Z,19.05
2023-02-11T09:01:18.286Z,19.88
2023-02-11T09:03:44.992Z,20.38
2023-02-11T09:06:13.909Z,19.38
2023-02-11T09:08:47.000Z,18.50
2023-02-11T09:11:13.860Z,17.67
2023-02-11T09:13:43.272Z,19.70
2023-02-11T09:16:18.519Z,18.38
2023-02-11T09:18:45.653Z,18.30
2023-02-11T09:21:13.383Z,18.35
2023-02-11T09:23:43.479Z,17.75
2023-02-11T09:26:16.053Z,17.25
2023-02-11T09:28:42.881Z,17.85
2023-02-11T09:31:17.434Z,19.58
2023-02-11T09:33:47.977Z,18.88
2023-02-11T09:36:21.795Z,21.85
2023-02-11T09:38:49.146Z,23.70
2023-02-11T09:41:54.336Z,23.52
2023-02-11T09:44:25.618Z,19.80
2023-02-11T09:47:30.515Z,20.20
2023-02-11T09:50:04.680Z,18.98
2023-02-11T09:52:44.964Z,38.47
2023-02-11T09:55:28.443Z,19.75
2023-02-11T09:57:56.735Z,18.77
2023-02-11T10:00:36.761Z,18.33
2023-02-11T10:03:30.878Z,19.13
2023-02-11T10:06:13.413Z,21.58
2023-02-11T10:08:50.996Z,20.42
2023-02-11T10:11:49.502Z,19.48
2023-02-11T10:14:21.745Z,19.00
2023-02-11T10:17:13.172Z,18.55
2023-02-11T10:20:03.574Z,18.58
2023-02-11T10:22:43.079Z,17.30
2023-02-11T10:25:33.547Z,17.45
2023-02-11T10:28:10.422Z,18.45
2023-02-11T10:30:59.739Z,18.30
2023-02-11T10:33:47.444Z,18.48
2023-02-11T10:36:17.717Z,49.38
2023-02-11T10:38:44.691Z,66.55
2023-02-11T10:41:22.549Z,56.78
2023-02-11T10:43:50.838Z,140.02
2023-02-11T10:46:31.879Z,35.00
2023-02-11T10:48:58.507Z,55.50
2023-02-11T10:51:33.577Z,41.70
2023-02-11T10:54:11.956Z,28.00
2023-02-11T10:56:52.807Z,19.75
2023-02-11T10:59:40.011Z,19.55
2023-02-11T11:05:23.690Z,17.27
2023-02-11T11:08:01.664Z,19.13
2023-02-11T11:10:43.178Z,20.48
2023-02-11T11:13:35.424Z,22.17
2023-02-11T11:16:29.383Z,18.73
2023-02-11T11:19:08.187Z,18.45
2023-02-11T11:21:42.105Z,20.73
2023-02-11T11:24:40.586Z,20.60
2023-02-11T11:27:16.630Z,19.02
2023-02-11T11:29:51.470Z,19.40
2023-02-11T11:32:27.959Z,20.30
2023-02-11T11:35:05.529Z,24.27
2023-02-11T11:37:36.403Z,68.80
2023-02-11T11:40:15.000Z,104.20
2023-02-11T11:42:42.021Z,185.20
2023-02-11T11:45:20.320Z,238.10
2023-02-11T11:48:03.093Z,50.22
2023-02-11T11:50:43.312Z,24.27
2023-02-11T11:53:40.676Z,21.50
2023-02-11T11:56:16.646Z,20.90
2023-02-11T11:58:46.645Z,22.20
2023-02-11T12:01:36.509Z,27.35
2023-02-11T12:04:38.439Z,20.95
2023-02-11T12:07:31.502Z,20.88
2023-02-11T12:10:18.645Z,21.00
2023-02-11T12:15:45.183Z,20.63
2023-02-11T12:18:44.338Z,20.77
2023-02-11T12:21:56.269Z,19.63
2023-02-11T12:25:09.606Z,20.75
2023-02-11T12:27:47.584Z,21.13
2023-02-11T12:30:20.613Z,21.30
2023-02-11T12:33:11.669Z,21.30
2023-02-11T12:36:06.806Z,23.88
2023-02-11T12:39:00.455Z,22.35
2023-02-11T12:42:25.278Z,21.52
2023-02-11T12:45:12.873Z,20.55
2023-02-11T12:48:13.382Z,20.83
2023-02-11T12:51:14.758Z,20.95
2023-02-11T12:53:58.755Z,22.77
2023-02-11T12:57:06.680Z,21.38
2023-02-11T12:59:49.808Z,22.35
2023-02-11T13:02:28.610Z,22.83
2023-02-11T13:05:04.018Z,21.48
2023-02-11T13:07:45.635Z,24.02
2023-02-11T13:10:17.888Z,23.25
2023-02-11T13:13:09.483Z,22.42
2023-02-11T13:15:37.091Z,23.88
2023-02-11T13:18:44.040Z,21.80
2023-02-11T13:21:21.702Z,23.80
2023-02-11T13:24:15.699Z,23.25
2023-02-11T13:27:00.195Z,24.67
2023-02-11T13:30:21.056Z,24.88
2023-02-11T13:32:56.564Z,24.92
2023-02-11T13:35:40.793Z,24.52
2023-02-11T13:38:25.501Z,24.48
2023-02-11T13:41:05.114Z,24.50
2023-02-11T13:43:36.340Z,23.15
2023-02-11T13:46:07.087Z,24.33
2023-02-11T13:48:40.025Z,23.40
2023-02-11T13:51:15.428Z,24.48
2023-02-11T13:53:57.378Z,23.33
2023-02-11T13:56:31.974Z,23.58
2023-02-11T13:59:06.377Z,24.33
2023-02-11T14:02:06.811Z,24.63
2023-02-11T14:04:52.644Z,22.15
2023-02-11T14:07:53.277Z,23.88
2023-02-11T14:10:41.352Z,25.55
2023-02-11T14:13:25.796Z,24.02
2023-02-11T14:16:17.084Z,24.42
2023-02-11T14:18:55.916Z,24.27
2023-02-11T14:21:32.232Z,23.75
2023-02-11T14:24:01.440Z,23.38
2023-02-11T14:26:47.195Z,24.63
2023-02-11T14:29:44.477Z,25.15
2023-02-11T14:32:43.860Z,23.60
2023-02-11T14:35:22.971Z,24.88
2023-02-11T14:38:15.756Z,24.83
2023-02-11T14:40:54.055Z,24.75
2023-02-11T14:43:29.538Z,24.50
2023-02-11T14:45:58.825Z,24.15
2023-02-11T14:48:37.932Z,25.15
2023-02-11T14:51:13.743Z,23.52
2023-02-11T14:53:48.959Z,24.97
2023-02-11T14:56:26.411Z,25.17
2023-02-11T14:58:55.266Z,25.85
2023-02-11T15:01:36.318Z,25.95
2023-02-11T15:04:06.348Z,23.88
2023-02-11T15:06:47.465Z,24.77
2023-02-11T15:09:19.856Z,27.00
2023-02-11T15:11:49.709Z,26.77
2023-02-11T15:14:26.409Z,25.42
2023-02-11T15:19:47.309Z,25.00
2023-02-11T15:22:29.272Z,23.52
2023-02-11T15:25:19.380Z,25.10
2023-02-11T15:27:48.762Z,25.02
2023-02-11T15:30:21.045Z,24.20
2023-02-11T15:32:57.898Z,24.63
2023-02-11T15:35:36.567Z,25.20
2023-02-11T15:38:04.767Z,25.50
2023-02-11T15:40:35.681Z,24.77
2023-02-11T15:43:07.584Z,24.08
2023-02-11T15:45:57.082Z,23.52
2023-02-11T15:48:37.140Z,24.10
2023-02-11T15:51:20.615Z,23.95
2023-02-11T15:53:56.666Z,23.67
2023-02-11T15:56:29.737Z,22.83
2023-02-11T15:59:00.627Z,25.27
2023-02-11T16:01:37.023Z,23.30
2023-02-11T16:04:05.458Z,23.15
2023-02-11T16:06:41.608Z,23.55
2023-02-11T16:09:11.069Z,25.35
2023-02-11T16:11:58.028Z,64.60
2023-02-11T16:14:31.421Z,55.78
2023-02-11T16:17:26.310Z,38.97
2023-02-11T16:19:54.150Z,39.70
2023-02-11T16:22:30.341Z,43.88
2023-02-11T16:24:59.708Z,41.33
2023-02-11T16:27:40.230Z,27.08
2023-02-11T16:30:40.365Z,25.08
2023-02-11T16:33:10.767Z,47.70
2023-02-11T16:35:37.568Z,26.60
2023-02-11T16:38:04.066Z,25.73
2023-02-11T16:40:30.608Z,24.05
2023-02-11T16:42:57.044Z,23.70
2023-02-11T16:45:23.577Z,23.85
2023-02-11T16:47:50.188Z,35.97
2023-02-11T16:50:24.177Z,27.65
2023-02-11T16:52:52.352Z,28.13
2023-02-11T16:55:25.280Z,26.50
2023-02-11T16:57:51.875Z,26.48
2023-02-11T17:00:19.055Z,26.38
2023-02-11T17:02:45.833Z,24.92
2023-02-11T17:05:20.382Z,24.23
2023-02-11T17:07:46.888Z,26.13
2023-02-11T17:10:20.572Z,27.88
2023-02-11T17:12:48.234Z,29.33
2023-02-11T17:15:14.861Z,27.77
2023-02-11T17:17:41.552Z,28.95
2023-02-11T17:20:11.078Z,31.77
2023-02-11T17:22:37.602Z,28.83
2023-02-11T17:25:04.276Z,29.63
2023-02-11T17:27:30.790Z,31.23
2023-02-11T17:29:57.297Z,31.50
2023-02-11T17:32:23.975Z,30.27
2023-02-11T17:34:53.634Z,31.70
2023-02-11T17:37:20.228Z,31.42
2023-02-11T17:39:49.142Z,34.08
2023-02-11T17:42:15.777Z,30.45
2023-02-11T17:44:44.241Z,31.30
2023-02-11T17:47:11.920Z,32.97
2023-02-11T17:49:39.660Z,38.70
2023-02-11T17:52:06.212Z,38.95
2023-02-11T17:54:32.728Z,35.70
2023-02-11T17:56:59.180Z,34.95
2023-02-11T17:59:26.452Z,32.75
2023-02-11T18:01:52.996Z,30.80
2023-02-11T18:04:20.328Z,38.00
2023-02-11T18:06:47.372Z,35.25
2023-02-11T18:09:13.923Z,35.47
2023-02-11T18:11:40.990Z,31.92
2023-02-11T18:14:08.526Z,30.80
2023-02-11T18:16:38.827Z,31.27
2023-02-11T18:19:07.512Z,29.85
2023-02-11T18:21:34.146Z,30.98
2023-02-11T18:24:07.364Z,30.05
2023-02-11T18:26:35.102Z,28.25
2023-02-11T18:29:03.732Z,34.10
2023-02-11T18:31:31.755Z,32.35
2023-02-11T18:33:58.371Z,30.50
2023-02-11T18:36:24.880Z,28.55
2023-02-11T18:38:53.238Z,28.65
2023-02-11T18:41:20.886Z,31.13
2023-02-11T18:43:47.405Z,25.95
2023-02-11T18:46:16.062Z,27.90
2023-02-11T18:48:44.749Z,28.17
2023-02-11T18:51:18.673Z,29.02
2023-02-11T18:53:45.673Z,32.60
2023-02-11T18:56:20.769Z,74.00
2023-02-11T18:58:49.285Z,97.10
2023-02-11T19:01:24.312Z,56.97
2023-02-11T19:03:51.482Z,54.65
2023-02-11T19:06:32.450Z,52.95
2023-02-11T19:09:04.021Z,54.65
2023-02-11T19:11:47.839Z,59.80
2023-02-11T19:14:27.575Z,71.07
2023-02-11T19:17:03.209Z,88.70
2023-02-11T19:19:33.764Z,51.85
2023-02-11T19:22:02.208Z,42.05
2023-02-11T19:24:30.156Z,42.83
2023-02-11T19:27:00.298Z,35.42
2023-02-11T19:29:28.396Z,31.30
2023-02-11T19:31:55.396Z,33.45
2023-02-11T19:34:22.335Z,37.35
2023-02-11T19:36:49.979Z,33.72
2023-02-11T19:39:18.332Z,31.98
2023-02-11T19:41:44.864Z,33.20
2023-02-11T19:44:14.325Z,33.45
2023-02-11T19:46:41.092Z,35.78
2023-02-11T19:49:09.884Z,35.30
2023-02-11T19:51:39.143Z,34.10
2023-02-11T19:54:07.414Z,35.50
2023-02-11T19:56:34.290Z,40.97
2023-02-11T19:59:03.069Z,39.47
2023-02-11T20:01:32.060Z,37.75
2023-02-11T20:03:58.673Z,35.60
2023-02-11T20:06:32.008Z,39.63
2023-02-11T20:09:13.449Z,33.13
2023-02-11T20:11:43.180Z,36.60
2023-02-11T20:14:13.019Z,34.65
2023-02-11T20:16:48.032Z,33.78
2023-02-11T20:19:21.872Z,35.20
2023-02-11T20:21:52.484Z,34.08
2023-02-11T20:24:20.159Z,36.47
2023-02-11T20:26:48.322Z,34.58
2023-02-11T20:29:18.888Z,32.50
2023-02-11T20:31:45.893Z,35.00
2023-02-11T20:34:12.597Z,34.13
2023-02-11T20:36:40.405Z,34.70
2023-02-11T20:39:08.034Z,35.10
2023-02-11T20:41:39.085Z,33.20
2023-02-11T20:44:10.742Z,33.08
2023-02-11T20:46:41.527Z,35.65
2023-02-11T20:49:12.031Z,35.67
2023-02-11T20:51:39.488Z,38.97
2023-02-11T20:54:07.567Z,35.58
2023-02-11T20:56:36.994Z,34.55
2023-02-11T20:59:05.703Z,34.10
2023-02-11T21:01:36.983Z,34.40
2023-02-11T21:04:14.377Z,34.58
2023-02-11T21:06:48.714Z,32.90
2023-02-11T21:09:20.034Z,32.58
2023-02-11T21:11:48.449Z,33.92
2023-02-11T21:14:15.347Z,34.05
2023-02-11T21:16:42.177Z,34.75
2023-02-11T21:19:08.738Z,31.58
2023-02-11T21:21:37.982Z,35.70
2023-02-11T21:24:06.896Z,34.33
2023-02-11T21:26:35.335Z,35.67
2023-02-11T21:29:07.346Z,33.95
2023-02-11T21:31:35.993Z,33.78
2023-02-11T21:34:03.196Z,36.58
2023-02-11T21:36:30.987Z,33.60
2023-02-11T21:38:57.843Z,34.20
2023-02-11T21:41:24.833Z,34.30
2023-02-11T21:43:52.407Z,36.72
2023-02-11T21:46:20.568Z,37.65
2023-02-11T21:48:47.954Z,35.60
2023-02-11T21:51:26.250Z,36.92
2023-02-11T21:54:01.505Z,33.53
2023-02-11T21:56:30.654Z,35.10
2023-02-11T21:58:59.605Z,33.65
2023-02-11T22:01:30.489Z,34.30
2023-02-11T22:03:58.440Z,40.38
2023-02-11T22:06:32.982Z,37.63
2023-02-11T22:09:05.888Z,36.42
2023-02-11T22:11:32.541Z,32.35
2023-02-11T22:13:59.294Z,33.70
2023-02-11T22:16:28.144Z,33.72
2023-02-11T22:18:58.433Z,35.65
2023-02-11T22:21:28.221Z,33.90
2023-02-11T22:23:55.822Z,37.17
2023-02-11T22:26:26.296Z,36.60
2023-02-11T22:28:53.817Z,36.55
2023-02-11T22:31:28.274Z,36.33
2023-02-11T22:33:55.275Z,36.00
2023-02-11T22:36:26.436Z,35.55
2023-02-11T22:38:59.435Z,35.25
2023-02-11T22:41:26.001Z,35.15
2023-02-11T22:43:52.487Z,34.05
2023-02-11T22:46:19.982Z,32.75
2023-02-11T22:48:48.498Z,34.05
2023-02-11T22:51:19.619Z,37.08
2023-02-11T22:54:07.122Z,38.75
2023-02-11T22:56:35.231Z,43.25
2023-02-11T22:59:06.229Z,38.00
2023-02-11T23:01:33.784Z,33.88
2023-02-11T23:04:04.321Z,35.58
2023-02-11T23:06:31.410Z,36.90
2023-02-11T23:08:57.987Z,37.50
2023-02-11T23:11:28.683Z,35.58
2023-02-11T23:13:55.577Z,33.22
2023-02-11T23:16:30.692Z,35.28
2023-02-11T23:19:01.128Z,37.45
2023-02-11T23:21:31.914Z,34.15
2023-02-11T23:24:10.923Z,34.83
2023-02-11T23:26:40.695Z,35.95
2023-02-11T23:29:07.724Z,35.42
2023-02-11T23:31:39.744Z,35.65
2023-02-11T23:34:08.241Z,35.85
2023-02-11T23:36:35.471Z,35.53
2023-02-11T23:39:02.820Z,35.13
2023-02-11T23:41:29.521Z,35.22
2023-02-11T23:43:58.961Z,31.75
2023-02-11T23:46:27.530Z,33.45
2023-02-11T23:48:54.424Z,34.75
2023-02-11T23:51:21.750Z,33.35
2023-02-11T23:53:53.658Z,34.67
2023-02-11T23:56:27.668Z,36.33
2023-02-11T23:58:57.735Z,34.38
